Time;durP1;ratioP1;P1;durP2;ratioP2;P2;SDS_P1;SDS_P2;PMS_P1;PMS_P2;Temp;Humidity;BMP_temperature;BMP_pressure;BME280_temperature;BME280_humidity;BME280_pressure;Samples;Min_cycle;Max_cycle;Signal;HPM_P1;HPM_P2
2023/08/25 00:01:00;;;;;;;70.20;54.90;;;19.00;99.90;;;;;;5096593;28;20044;-82
2023/08/25 00:03:47;;;;;;;76.07;56.85;;;19.00;99.90;;;;;;5111977;28;20079;-73
2023/08/25 00:06:33;;;;;;;74.75;52.42;;;19.00;99.90;;;;;;5112516;28;20117;-71
2023/08/25 00:09:19;;;;;;;67.50;51.00;;;18.90;99.90;;;;;;5111914;28;20108;-82
2023/08/25 00:12:06;;;;;;;71.63;56.00;;;18.90;99.90;;;;;;5110243;28;20104;-69
2023/08/25 00:14:52;;;;;;;83.90;61.40;;;18.90;99.90;;;;;;5110592;28;20058;-82
2023/08/25 00:17:39;;;;;;;64.80;53.47;;;18.90;99.90;;;;;;5111539;28;20047;-81
2023/08/25 00:20:25;;;;;;;89.22;64.18;;;18.90;99.90;;;;;;5111779;28;20188;-69
2023/08/25 00:23:12;;;;;;;93.38;65.18;;;18.90;99.90;;;;;;5112096;28;20135;-73
2023/08/25 00:25:58;;;;;;;90.80;65.03;;;18.80;99.90;;;;;;5111354;28;20193;-74
2023/08/25 00:28:44;;;;;;;91.60;60.13;;;18.80;99.90;;;;;;5110513;28;20134;-75
2023/08/25 00:31:30;;;;;;;75.20;54.78;;;18.80;99.90;;;;;;5111601;28;20109;-74
2023/08/25 00:34:16;;;;;;;84.18;57.33;;;18.80;99.90;;;;;;5111347;28;20043;-71
2023/08/25 00:37:04;;;;;;;92.75;59.75;;;18.80;99.90;;;;;;5111754;28;20052;-70
2023/08/25 00:39:50;;;;;;;98.35;63.83;;;18.80;99.90;;;;;;5113012;27;20392;-78
2023/08/25 00:42:37;;;;;;;78.75;56.83;;;18.70;99.90;;;;;;5111432;28;20067;-71
2023/08/25 00:45:23;;;;;;;91.60;60.80;;;18.70;99.90;;;;;;5110316;28;20044;-72
2023/08/25 00:48:10;;;;;;;90.47;58.85;;;18.70;99.90;;;;;;5111048;28;20060;-70
2023/08/25 00:50:57;;;;;;;84.40;57.05;;;18.70;99.90;;;;;;5111127;28;20052;-78
2023/08/25 00:53:45;;;;;;;87.82;55.92;;;18.70;99.90;;;;;;5111404;28;20077;-72
2023/08/25 00:56:32;;;;;;;96.38;59.60;;;18.70;99.90;;;;;;5111202;28;20048;-70
2023/08/25 00:59:18;;;;;;;94.30;57.13;;;18.70;99.90;;;;;;5110803;28;20055;-73
2023/08/25 01:02:05;;;;;;;92.03;59.92;;;18.70;99.90;;;;;;5111023;28;20066;-71
2023/08/25 01:04:51;;;;;;;85.32;55.63;;;18.80;99.90;;;;;;5110866;28;20134;-72
2023/08/25 01:07:37;;;;;;;95.03;56.40;;;18.70;99.90;;;;;;5110394;28;20142;-71
2023/08/25 01:10:31;;;;;;;92.90;57.30;;;18.80;99.90;;;;;;5110582;28;20058;-70
2023/08/25 01:13:26;;;;;;;106.35;59.92;;;18.80;99.90;;;;;;5110539;28;20074;-74
2023/08/25 01:16:16;;;;;;;95.38;56.78;;;18.80;99.90;;;;;;5109831;28;20511;-78
2023/08/25 01:19:05;;;;;;;95.45;56.60;;;18.80;99.90;;;;;;5109770;28;20087;-76
2023/08/25 01:21:56;;;;;;;89.30;53.75;;;18.80;99.90;;;;;;5110271;28;20143;-75
2023/08/25 01:24:47;;;;;;;100.60;56.22;;;18.80;99.90;;;;;;5110092;28;20062;-76
2023/08/25 01:27:34;;;;;;;108.82;58.25;;;18.80;99.90;;;;;;5108232;28;20059;-75
2023/08/25 01:30:22;;;;;;;115.78;61.42;;;18.80;99.90;;;;;;5110944;28;20043;-71
2023/08/25 01:33:10;;;;;;;104.28;58.42;;;18.80;99.90;;;;;;5110603;28;20051;-72
2023/08/25 01:36:05;;;;;;;89.55;55.33;;;18.80;99.90;;;;;;5110484;28;20082;-72
2023/08/25 01:39:06;;;;;;;97.18;55.55;;;18.80;99.90;;;;;;5109038;28;20379;-71
2023/08/25 01:41:57;;;;;;;92.18;54.15;;;18.80;99.90;;;;;;5110293;28;20134;-70
2023/08/25 01:44:44;;;;;;;83.68;51.58;;;18.80;99.90;;;;;;5110456;28;20055;-78
2023/08/25 01:47:33;;;;;;;96.22;57.05;;;18.80;99.90;;;;;;5110403;28;20091;-78
2023/08/25 01:50:21;;;;;;;90.30;52.55;;;18.80;99.90;;;;;;5110327;28;20483;-81
2023/08/25 01:53:08;;;;;;;93.85;54.72;;;18.80;99.90;;;;;;5111667;28;20096;-71
2023/08/25 01:55:55;;;;;;;118.38;62.95;;;18.80;99.90;;;;;;5111327;28;20040;-69
2023/08/25 01:58:41;;;;;;;115.53;60.13;;;18.80;99.90;;;;;;5111061;28;20060;-75
2023/08/25 02:01:30;;;;;;;135.10;64.07;;;18.80;99.90;;;;;;5110310;28;20054;-78
2023/08/25 02:04:16;;;;;;;122.43;64.40;;;18.90;99.90;;;;;;5108700;28;20590;-83
2023/08/25 02:07:02;;;;;;;128.75;61.67;;;18.90;99.90;;;;;;5111421;28;20058;-76
2023/08/25 02:09:52;;;;;;;170.85;69.75;;;18.90;99.90;;;;;;5111659;27;20048;-74
2023/08/25 02:12:38;;;;;;;130.85;61.05;;;18.90;99.90;;;;;;5109558;28;20054;-73
2023/08/25 02:15:24;;;;;;;155.07;67.07;;;18.90;99.90;;;;;;5108526;28;20563;-76
2023/08/25 02:18:11;;;;;;;155.13;67.82;;;18.90;99.90;;;;;;5109878;28;20445;-81
2023/08/25 02:20:57;;;;;;;137.32;62.72;;;18.90;99.90;;;;;;5095340;28;20506;-82
2023/08/25 02:23:43;;;;;;;175.25;69.38;;;18.90;99.90;;;;;;5110256;28;20134;-77
2023/08/25 02:26:29;;;;;;;154.07;66.25;;;18.90;99.90;;;;;;5109355;28;20062;-71
2023/08/25 02:29:16;;;;;;;169.07;69.30;;;19.00;99.90;;;;;;5109733;28;20050;-73
2023/08/25 02:32:02;;;;;;;163.63;67.50;;;19.00;99.90;;;;;;5109561;28;20418;-71
2023/08/25 02:34:48;;;;;;;147.57;63.05;;;19.00;99.90;;;;;;5094514;28;20043;-70
2023/08/25 02:37:34;;;;;;;144.20;62.15;;;19.00;99.90;;;;;;5111536;28;20100;-72
2023/08/25 02:40:21;;;;;;;152.13;66.70;;;19.00;99.90;;;;;;5113259;28;20051;-71
2023/08/25 02:43:08;;;;;;;163.63;72.07;;;19.00;99.90;;;;;;5113054;28;20050;-72
2023/08/25 02:45:59;;;;;;;173.95;72.72;;;19.00;99.90;;;;;;5111854;28;20051;-71
2023/08/25 02:48:45;;;;;;;163.85;70.18;;;19.00;99.90;;;;;;5113274;28;20082;-71
2023/08/25 02:51:31;;;;;;;156.38;71.10;;;19.00;99.90;;;;;;5113541;28;20130;-74
2023/08/25 02:54:17;;;;;;;186.48;75.13;;;19.00;99.90;;;;;;5113806;28;20051;-70
2023/08/25 02:57:03;;;;;;;145.93;71.57;;;19.00;99.90;;;;;;5113927;28;20483;-74
2023/08/25 02:59:49;;;;;;;173.32;76.22;;;19.00;99.90;;;;;;5114253;28;20047;-74
2023/08/25 03:02:35;;;;;;;191.85;78.00;;;19.00;99.90;;;;;;5112702;28;20043;-71
2023/08/25 03:05:21;;;;;;;201.93;80.35;;;19.00;99.90;;;;;;5113093;28;20060;-78
2023/08/25 03:08:12;;;;;;;157.43;72.82;;;19.00;99.90;;;;;;5112062;28;20093;-74
2023/08/25 03:11:04;;;;;;;148.20;72.13;;;19.10;99.90;;;;;;5112667;28;20047;-70
2023/08/25 03:13:50;;;;;;;177.27;76.07;;;19.00;99.90;;;;;;5113849;28;20058;-72
2023/08/25 03:16:36;;;;;;;202.57;80.25;;;19.10;99.90;;;;;;5111754;28;20107;-74
2023/08/25 03:19:22;;;;;;;192.32;78.90;;;19.10;99.90;;;;;;5113062;28;20052;-71
2023/08/25 03:22:08;;;;;;;158.43;73.32;;;19.10;99.90;;;;;;5114432;28;20044;-79
2023/08/25 03:24:55;;;;;;;212.95;83.22;;;19.00;99.90;;;;;;5112610;28;20051;-79
2023/08/25 03:27:41;;;;;;;170.30;79.57;;;19.10;99.90;;;;;;5110941;28;20502;-78
2023/08/25 03:30:27;;;;;;;139.32;68.80;;;19.10;99.90;;;;;;5113214;27;20051;-70
2023/08/25 03:33:13;;;;;;;145.30;68.72;;;19.10;99.90;;;;;;5112653;28;20063;-72
2023/08/25 03:35:59;;;;;;;141.95;66.50;;;19.10;99.90;;;;;;5112643;28;20044;-70
2023/08/25 03:38:45;;;;;;;212.65;82.95;;;19.10;99.90;;;;;;5113356;28;20143;-72
2023/08/25 03:41:31;;;;;;;208.05;82.95;;;19.00;99.90;;;;;;5097127;28;20051;-76
2023/08/25 03:44:17;;;;;;;225.13;85.90;;;19.00;99.90;;;;;;5110485;28;20066;-75
2023/08/25 03:47:04;;;;;;;213.38;82.68;;;19.00;99.90;;;;;;5113592;27;20407;-79
2023/08/25 03:49:50;;;;;;;169.85;73.80;;;19.00;99.90;;;;;;5096912;28;20056;-71
2023/08/25 03:52:36;;;;;;;184.70;77.30;;;19.00;99.90;;;;;;5111374;28;20050;-77
2023/08/25 03:55:23;;;;;;;186.13;78.28;;;19.00;99.90;;;;;;5113515;27;20491;-77
2023/08/25 03:58:10;;;;;;;205.15;80.35;;;19.00;99.90;;;;;;5112432;28;20055;-71
2023/08/25 04:00:57;;;;;;;150.93;69.90;;;19.00;99.90;;;;;;5111773;28;20503;-70
2023/08/25 04:03:43;;;;;;;162.30;70.72;;;19.00;99.90;;;;;;5111930;28;20541;-82
2023/08/25 04:06:32;;;;;;;148.05;65.30;;;19.00;99.90;;;;;;5110582;28;20047;-81
2023/08/25 04:09:18;;;;;;;139.02;65.03;;;19.00;99.90;;;;;;5112000;28;20067;-78
2023/08/25 04:12:04;;;;;;;145.13;68.85;;;19.00;99.90;;;;;;5111398;28;20043;-79
2023/08/25 04:14:50;;;;;;;197.25;80.82;;;19.00;99.90;;;;;;5111200;28;20044;-71
2023/08/25 04:17:37;;;;;;;206.80;80.40;;;19.00;99.90;;;;;;5110290;28;20055;-77
2023/08/25 04:20:23;;;;;;;173.63;76.63;;;19.00;99.90;;;;;;5111375;28;20051;-81
2023/08/25 04:23:09;;;;;;;159.68;75.82;;;19.00;99.90;;;;;;5111680;28;20138;-77
2023/08/25 04:25:56;;;;;;;114.60;57.63;;;19.00;99.90;;;;;;5109555;28;20134;-71
2023/08/25 04:28:42;;;;;;;148.48;75.10;;;19.00;99.90;;;;;;5110780;28;20123;-82
2023/08/25 04:31:28;;;;;;;134.15;64.32;;;19.00;99.90;;;;;;5111517;28;20059;-82
2023/08/25 04:34:14;;;;;;;132.10;65.57;;;19.00;99.90;;;;;;5112472;28;20044;-82
2023/08/25 04:37:00;;;;;;;127.00;68.20;;;19.00;99.90;;;;;;5111537;28;20144;-78
2023/08/25 04:39:46;;;;;;;72.68;46.35;;;19.00;99.90;;;;;;5111532;28;20047;-79
2023/08/25 04:42:32;;;;;;;58.03;39.60;;;19.00;99.90;;;;;;5110935;28;20039;-75
2023/08/25 04:45:19;;;;;;;65.57;40.15;;;19.00;99.90;;;;;;5111284;28;20124;-73
2023/08/25 04:48:05;;;;;;;53.20;37.50;;;18.90;99.90;;;;;;5110881;28;20051;-76
2023/08/25 04:50:51;;;;;;;43.05;31.13;;;18.90;99.90;;;;;;5112223;28;20142;-82
2023/08/25 04:53:37;;;;;;;51.03;34.72;;;18.90;99.90;;;;;;5112147;28;20076;-77
2023/08/25 04:56:23;;;;;;;48.00;32.15;;;18.90;99.90;;;;;;5109603;28;20056;-71
2023/08/25 04:59:09;;;;;;;53.33;36.97;;;18.80;99.90;;;;;;5111994;28;20083;-77
2023/08/25 05:01:55;;;;;;;45.95;34.75;;;18.80;99.90;;;;;;5109752;28;20039;-76
2023/08/25 05:04:42;;;;;;;40.60;27.98;;;18.80;99.90;;;;;;5110285;28;20471;-75
2023/08/25 05:07:28;;;;;;;46.25;32.42;;;18.80;99.90;;;;;;5110675;28;20451;-76
2023/08/25 05:10:14;;;;;;;49.05;31.30;;;18.80;99.90;;;;;;5111313;28;20380;-75
2023/08/25 05:13:00;;;;;;;41.67;32.33;;;18.80;99.90;;;;;;5110513;28;20487;-74
2023/08/25 05:15:47;;;;;;;43.08;31.92;;;18.90;99.90;;;;;;5110489;28;20066;-71
2023/08/25 05:18:33;;;;;;;41.50;30.38;;;18.80;99.90;;;;;;5110533;28;20043;-70
2023/08/25 05:21:20;;;;;;;45.40;29.95;;;18.90;99.90;;;;;;5110551;28;20081;-76
2023/08/25 05:24:25;;;;;;;42.13;27.77;;;18.80;99.90;;;;;;5110392;28;20066;-76
2023/08/25 05:27:11;;;;;;;41.40;26.33;;;18.80;99.90;;;;;;5110219;28;20055;-74
2023/08/25 05:29:57;;;;;;;41.20;27.55;;;18.80;99.90;;;;;;5111014;28;20391;-70
2023/08/25 05:32:43;;;;;;;38.72;25.38;;;18.80;99.90;;;;;;5110487;28;20043;-71
2023/08/25 05:35:29;;;;;;;27.98;16.63;;;18.80;99.90;;;;;;5110906;28;20437;-71
2023/08/25 05:38:15;;;;;;;28.33;16.25;;;18.80;99.90;;;;;;5110217;28;20140;-75
2023/08/25 05:41:02;;;;;;;26.20;13.73;;;18.80;99.90;;;;;;5110088;28;20465;-70
2023/08/25 05:43:48;;;;;;;26.02;14.40;;;18.80;99.90;;;;;;5110272;28;20043;-71
2023/08/25 05:46:34;;;;;;;24.30;13.07;;;18.80;99.90;;;;;;5094516;28;20054;-70
2023/08/25 05:49:21;;;;;;;15.45;11.88;;;18.80;99.90;;;;;;5110562;28;20051;-71
2023/08/25 05:52:07;;;;;;;18.95;12.00;;;18.80;99.90;;;;;;5110672;28;20138;-74
2023/08/25 05:54:53;;;;;;;20.30;13.35;;;18.80;99.90;;;;;;5110130;28;20585;-70
2023/08/25 05:57:39;;;;;;;20.95;13.27;;;18.80;99.90;;;;;;5110035;28;20487;-82
2023/08/25 06:00:26;;;;;;;26.02;14.70;;;18.90;99.90;;;;;;5108890;28;20139;-82
2023/08/25 06:03:12;;;;;;;25.38;15.32;;;18.80;99.90;;;;;;5110246;28;20059;-77
2023/08/25 06:05:58;;;;;;;21.10;13.57;;;18.90;99.90;;;;;;5110353;28;20134;-79
2023/08/25 06:08:44;;;;;;;21.45;13.43;;;18.90;99.90;;;;;;5094899;28;20051;-78
2023/08/25 06:11:30;;;;;;;19.85;12.45;;;18.90;99.90;;;;;;5109636;28;20080;-81
2023/08/25 06:14:17;;;;;;;24.63;14.60;;;18.90;99.90;;;;;;5112785;28;20055;-77
2023/08/25 06:17:03;;;;;;;23.05;11.90;;;18.90;99.90;;;;;;5113348;28;20052;-75
2023/08/25 06:19:49;;;;;;;20.48;13.10;;;18.90;99.90;;;;;;5112850;28;20419;-82
2023/08/25 06:22:36;;;;;;;20.33;12.88;;;19.00;99.90;;;;;;5113738;28;20066;-76
2023/08/25 06:25:22;;;;;;;23.85;15.75;;;19.00;99.90;;;;;;5113672;28;20090;-77
2023/08/25 06:28:08;;;;;;;21.58;14.75;;;19.20;99.90;;;;;;5114158;28;20048;-82
2023/08/25 06:30:54;;;;;;;23.90;15.43;;;19.30;99.90;;;;;;5114439;28;20127;-80
2023/08/25 06:33:40;;;;;;;25.10;15.73;;;19.30;99.90;;;;;;5112315;28;20043;-80
2023/08/25 06:36:27;;;;;;;26.98;16.67;;;19.40;99.90;;;;;;5113815;28;20403;-81
2023/08/25 06:39:14;;;;;;;28.60;15.93;;;19.40;99.90;;;;;;5113979;28;20066;-76
2023/08/25 06:42:00;;;;;;;30.80;17.95;;;19.50;99.90;;;;;;5113718;28;20055;-82
2023/08/25 06:44:47;;;;;;;25.67;15.23;;;19.60;99.90;;;;;;5112453;28;20089;-77
2023/08/25 06:47:34;;;;;;;28.60;17.92;;;19.60;99.90;;;;;;5113770;28;20055;-77
2023/08/25 06:50:21;;;;;;;24.48;16.35;;;19.60;99.90;;;;;;5113311;28;20133;-73
2023/08/25 06:53:07;;;;;;;23.75;16.30;;;19.60;99.90;;;;;;5115661;27;20048;-72
2023/08/25 06:55:53;;;;;;;28.58;19.25;;;19.60;99.90;;;;;;5113555;28;20051;-74
2023/08/25 06:58:40;;;;;;;34.65;19.95;;;19.60;99.90;;;;;;5112950;28;20087;-79
2023/08/25 07:01:26;;;;;;;34.50;19.10;;;19.70;99.90;;;;;;5112879;28;20044;-80
2023/08/25 07:04:11;;;;;;;29.35;17.58;;;19.80;99.90;;;;;;5113425;28;20405;-77
2023/08/25 07:06:58;;;;;;;28.67;16.42;;;19.80;99.90;;;;;;5111735;28;20052;-77
2023/08/25 07:09:44;;;;;;;28.83;13.57;;;19.80;99.90;;;;;;5113062;28;20087;-76
2023/08/25 07:12:31;;;;;;;30.60;15.15;;;19.80;99.90;;;;;;5113385;28;20062;-74
2023/08/25 07:15:17;;;;;;;27.55;15.80;;;19.80;99.90;;;;;;5113269;28;20047;-82
2023/08/25 07:18:04;;;;;;;26.45;15.15;;;19.80;99.90;;;;;;5111665;28;20047;-74
2023/08/25 07:20:51;;;;;;;29.48;15.02;;;19.80;99.90;;;;;;5112024;28;20055;-73
2023/08/25 07:23:41;;;;;;;36.80;17.02;;;19.90;99.90;;;;;;5112804;28;20047;-75
2023/08/25 07:26:30;;;;;;;33.10;16.83;;;19.90;99.90;;;;;;5112759;28;20055;-82
2023/08/25 07:29:20;;;;;;;29.90;15.27;;;20.00;99.90;;;;;;5100098;28;20067;-79
2023/08/25 07:32:08;;;;;;;32.40;15.48;;;20.00;99.90;;;;;;5116386;27;20051;-80
2023/08/25 07:34:55;;;;;;;28.70;15.98;;;20.10;99.90;;;;;;5100747;28;20048;-73
2023/08/25 07:37:41;;;;;;;27.67;16.55;;;20.20;99.90;;;;;;5113042;28;20524;-78
2023/08/25 07:40:28;;;;;;;28.88;14.35;;;20.30;99.90;;;;;;5112000;28;20051;-73
2023/08/25 07:43:14;;;;;;;24.92;15.57;;;20.40;99.90;;;;;;5112718;28;20055;-78
2023/08/25 07:46:00;;;;;;;23.13;14.93;;;20.40;99.90;;;;;;5111609;28;20054;-75
2023/08/25 07:48:46;;;;;;;23.83;13.32;;;20.50;99.90;;;;;;5112222;28;20055;-71
2023/08/25 07:51:32;;;;;;;27.23;14.38;;;20.70;99.90;;;;;;5112370;28;20067;-79
2023/08/25 07:54:18;;;;;;;28.35;14.05;;;20.80;99.90;;;;;;5112378;28;20039;-77
2023/08/25 07:57:05;;;;;;;28.40;14.10;;;20.90;99.90;;;;;;5113329;28;20051;-70
2023/08/25 07:59:51;;;;;;;28.58;13.82;;;20.90;99.90;;;;;;5096997;28;20124;-75
2023/08/25 08:02:37;;;;;;;29.30;14.73;;;21.00;99.90;;;;;;5113765;27;20113;-70
2023/08/25 08:05:23;;;;;;;31.52;15.65;;;21.10;99.90;;;;;;5112465;28;20050;-74
2023/08/25 08:08:09;;;;;;;23.77;12.85;;;21.10;99.90;;;;;;5112199;28;20119;-73
2023/08/25 08:10:55;;;;;;;25.95;14.57;;;21.20;99.90;;;;;;5112049;28;20059;-76
2023/08/25 08:13:42;;;;;;;29.05;13.25;;;21.20;99.90;;;;;;5112191;28;20055;-70
2023/08/25 08:16:29;;;;;;;29.52;14.68;;;21.10;99.90;;;;;;5110973;28;20056;-70
2023/08/25 08:19:15;;;;;;;29.60;14.52;;;21.00;99.90;;;;;;5112019;28;20055;-77
2023/08/25 08:22:03;;;;;;;30.15;15.45;;;21.00;99.90;;;;;;5111904;28;20047;-76
2023/08/25 08:24:49;;;;;;;29.13;15.55;;;21.00;99.90;;;;;;5110967;28;20043;-71
2023/08/25 08:27:37;;;;;;;30.17;13.65;;;21.00;99.90;;;;;;5111970;28;20522;-71
2023/08/25 08:30:23;;;;;;;23.20;11.70;;;21.10;99.90;;;;;;5096562;28;20069;-74
2023/08/25 08:33:10;;;;;;;27.67;13.80;;;21.20;99.90;;;;;;5112432;28;20051;-70
2023/08/25 08:36:00;;;;;;;28.30;13.93;;;21.30;99.90;;;;;;5112416;28;20056;-81
2023/08/25 08:38:46;;;;;;;28.50;14.65;;;21.40;99.90;;;;;;5109880;28;20059;-70
2023/08/25 08:41:32;;;;;;;27.75;14.80;;;21.40;99.90;;;;;;5111411;28;20460;-72
2023/08/25 08:44:19;;;;;;;28.77;14.57;;;21.50;99.90;;;;;;5111199;28;20147;-73
2023/08/25 08:47:06;;;;;;;23.17;12.23;;;21.60;99.90;;;;;;5111297;28;20071;-71
2023/08/25 08:49:53;;;;;;;24.50;13.27;;;21.90;99.90;;;;;;5109821;28;20078;-72
2023/08/25 08:52:39;;;;;;;23.70;13.05;;;22.20;99.90;;;;;;5113169;28;20078;-74
2023/08/25 08:55:26;;;;;;;27.92;13.82;;;22.40;99.90;;;;;;5112374;28;20048;-73
2023/08/25 08:58:15;;;;;;;27.67;13.57;;;22.50;99.90;;;;;;5109673;28;20108;-73
2023/08/25 09:01:03;;;;;;;27.95;13.18;;;22.60;99.90;;;;;;5110617;28;20486;-75
2023/08/25 09:03:51;;;;;;;29.70;12.30;;;22.80;99.90;;;;;;5110858;28;20499;-78
2023/08/25 09:06:38;;;;;;;23.38;11.80;;;22.90;99.90;;;;;;5111533;28;20121;-80
2023/08/25 09:09:24;;;;;;;23.23;11.27;;;22.90;99.90;;;;;;5110636;28;20128;-74
2023/08/25 09:12:13;;;;;;;20.15;13.50;;;22.90;99.90;;;;;;5096253;28;20043;-75
2023/08/25 09:14:59;;;;;;;27.08;12.35;;;22.90;99.90;;;;;;5110287;28;20607;-76
2023/08/25 09:17:47;;;;;;;21.83;11.90;;;23.20;99.90;;;;;;5110523;28;20051;-74
2023/08/25 09:20:38;;;;;;;21.30;13.05;;;23.30;99.90;;;;;;5110540;28;20051;-77
2023/08/25 09:23:24;;;;;;;23.48;12.13;;;23.20;99.90;;;;;;5112034;27;20499;-73
2023/08/25 09:26:10;;;;;;;24.35;11.48;;;23.10;99.90;;;;;;5110106;28;20096;-79
2023/08/25 09:28:58;;;;;;;26.50;13.43;;;23.20;99.90;;;;;;5111611;28;20056;-74
2023/08/25 09:31:45;;;;;;;21.83;11.90;;;23.30;99.90;;;;;;5112109;27;20499;-78
2023/08/25 09:34:31;;;;;;;22.85;12.55;;;23.40;99.90;;;;;;5110333;28;20085;-75
2023/08/25 09:37:18;;;;;;;21.77;12.10;;;23.40;99.90;;;;;;5109442;28;20047;-73
2023/08/25 09:40:04;;;;;;;22.25;12.07;;;23.60;99.90;;;;;;5109689;28;20040;-74
2023/08/25 09:43:00;;;;;;;22.17;12.35;;;23.90;99.90;;;;;;5110133;28;20083;-75
2023/08/25 09:45:46;;;;;;;22.58;12.63;;;24.10;99.90;;;;;;5095994;28;20510;-72
2023/08/25 09:48:32;;;;;;;22.92;10.60;;;24.00;99.90;;;;;;5111951;28;20536;-71
2023/08/25 09:51:19;;;;;;;18.77;11.35;;;24.00;99.90;;;;;;5114249;28;20054;-74
2023/08/25 09:54:10;;;;;;;18.50;11.27;;;23.90;99.90;;;;;;5114128;28;20135;-75
2023/08/25 09:56:56;;;;;;;23.63;12.02;;;23.70;99.90;;;;;;5113105;28;20109;-75
2023/08/25 09:59:43;;;;;;;21.65;11.48;;;23.80;99.90;;;;;;5115636;28;20048;-77
2023/08/25 10:02:30;;;;;;;23.95;12.45;;;23.70;99.90;;;;;;5114389;28;20411;-81
2023/08/25 10:05:19;;;;;;;26.25;12.38;;;23.80;99.90;;;;;;5114396;28;20177;-75
2023/08/25 10:08:07;;;;;;;21.45;10.55;;;23.70;99.90;;;;;;5113708;28;20058;-72
2023/08/25 10:10:54;;;;;;;18.13;11.10;;;23.80;99.90;;;;;;5114206;28;20093;-73
2023/08/25 10:13:44;;;;;;;18.35;11.05;;;23.90;99.90;;;;;;5114079;28;20177;-80
2023/08/25 10:16:33;;;;;;;20.25;11.48;;;23.80;99.90;;;;;;5112696;28;20483;-75
2023/08/25 10:19:26;;;;;;;19.52;10.88;;;23.80;99.90;;;;;;5115124;28;20048;-73
2023/08/25 10:22:14;;;;;;;18.27;10.48;;;23.90;99.90;;;;;;5113921;28;20070;-79
2023/08/25 10:25:02;;;;;;;18.80;11.25;;;24.00;99.90;;;;;;5113470;28;20058;-73
2023/08/25 10:27:49;;;;;;;17.80;10.25;;;24.10;99.90;;;;;;5113408;28;20051;-71
2023/08/25 10:30:35;;;;;;;17.52;10.43;;;24.20;99.90;;;;;;5113164;28;20051;-69
2023/08/25 10:33:22;;;;;;;19.83;10.00;;;24.40;99.90;;;;;;5113217;28;20051;-70
2023/08/25 10:36:14;;;;;;;17.08;11.27;;;24.70;99.90;;;;;;5112213;28;20055;-73
2023/08/25 10:39:00;;;;;;;19.33;10.95;;;25.00;99.90;;;;;;5113639;28;20112;-74
2023/08/25 10:41:47;;;;;;;16.90;9.48;;;25.00;99.90;;;;;;5113562;28;20060;-75
2023/08/25 10:44:40;;;;;;;21.15;10.38;;;25.30;99.90;;;;;;5112990;28;20101;-78
2023/08/25 10:47:27;;;;;;;17.25;10.02;;;25.30;99.90;;;;;;5114350;28;20043;-70
2023/08/25 10:50:19;;;;;;;20.40;9.75;;;25.30;99.90;;;;;;5114145;28;20058;-77
2023/08/25 10:53:41;;;;;;;15.77;10.10;;;25.30;99.90;;;;;;5114457;28;20050;-79
2023/08/25 10:56:27;;;;;;;14.60;9.57;;;25.40;99.90;;;;;;5113052;28;20052;-70
2023/08/25 10:59:14;;;;;;;16.33;9.50;;;25.60;99.90;;;;;;5110894;28;20054;-70
2023/08/25 11:02:01;;;;;;;15.00;8.00;;;25.70;99.90;;;;;;5113688;28;20425;-72
2023/08/25 11:04:47;;;;;;;16.90;9.00;;;25.80;99.90;;;;;;5112328;28;20057;-81
2023/08/25 11:07:45;;;;;;;21.30;10.27;;;25.50;99.90;;;;;;5113103;28;20070;-71
2023/08/25 11:10:36;;;;;;;17.95;10.23;;;25.30;99.90;;;;;;5112097;28;20135;-75
2023/08/25 11:13:23;;;;;;;19.27;9.27;;;25.00;99.90;;;;;;5112795;28;20056;-70
2023/08/25 11:16:11;;;;;;;19.27;9.57;;;24.90;99.90;;;;;;5113512;28;20059;-71
2023/08/25 11:18:57;;;;;;;19.67;10.38;;;24.80;99.90;;;;;;5113547;28;20059;-70
2023/08/25 11:21:43;;;;;;;16.90;9.63;;;24.70;99.90;;;;;;5097784;28;20044;-73
2023/08/25 11:24:31;;;;;;;18.15;9.20;;;24.50;99.90;;;;;;5112132;28;20061;-73
2023/08/25 11:27:22;;;;;;;14.98;8.73;;;24.40;99.90;;;;;;5112990;28;20083;-69
2023/08/25 11:30:09;;;;;;;26.63;10.52;;;24.50;99.90;;;;;;5113036;28;20051;-71
2023/08/25 11:32:56;;;;;;;19.75;9.00;;;24.60;99.90;;;;;;5111979;28;20482;-81
2023/08/25 11:35:44;;;;;;;18.95;9.77;;;24.60;99.90;;;;;;5111427;28;20056;-79
2023/08/25 11:38:31;;;;;;;16.88;9.48;;;24.60;99.90;;;;;;5112778;28;20043;-77
2023/08/25 11:41:18;;;;;;;19.80;9.27;;;24.60;99.90;;;;;;5112018;28;20554;-81
2023/08/25 11:44:05;;;;;;;20.10;8.63;;;24.70;99.90;;;;;;5112452;28;20051;-70
2023/08/25 11:46:53;;;;;;;18.40;8.90;;;24.80;99.90;;;;;;5112427;28;20051;-71
2023/08/25 11:49:39;;;;;;;14.77;8.75;;;24.90;99.90;;;;;;5111594;28;20083;-79
2023/08/25 11:52:26;;;;;;;18.45;9.10;;;24.80;99.90;;;;;;5111818;28;20040;-80
2023/08/25 11:55:15;;;;;;;16.70;8.15;;;24.70;99.90;;;;;;5112289;28;20070;-81
2023/08/25 11:58:08;;;;;;;18.23;8.70;;;24.50;99.90;;;;;;5111478;28;20054;-80
2023/08/25 12:00:59;;;;;;;12.10;8.13;;;24.30;99.90;;;;;;5111930;28;20479;-72
2023/08/25 12:03:46;;;;;;;16.02;8.50;;;24.00;99.90;;;;;;5112729;28;20128;-74
2023/08/25 12:06:36;;;;;;;18.67;9.40;;;23.80;99.90;;;;;;5112112;28;20461;-82
2023/08/25 12:09:23;;;;;;;15.43;8.90;;;23.50;99.90;;;;;;5114283;28;20170;-78
2023/08/25 12:12:10;;;;;;;17.02;9.18;;;23.40;99.90;;;;;;5112577;28;20108;-73
2023/08/25 12:14:56;;;;;;;14.55;7.82;;;23.20;99.90;;;;;;5112316;28;20048;-76
2023/08/25 12:17:42;;;;;;;15.18;8.70;;;23.00;99.90;;;;;;5110671;28;20055;-76
2023/08/25 12:20:28;;;;;;;17.60;8.70;;;22.90;99.90;;;;;;5111783;28;20511;-72
2023/08/25 12:23:14;;;;;;;14.45;8.18;;;22.80;99.90;;;;;;5112383;28;20055;-73
2023/08/25 12:26:11;;;;;;;14.90;8.10;;;22.70;99.90;;;;;;5111440;28;20073;-70
2023/08/25 12:28:57;;;;;;;13.88;8.73;;;22.70;99.90;;;;;;5111569;28;20088;-75
2023/08/25 12:31:43;;;;;;;18.88;8.77;;;22.60;99.90;;;;;;5113549;28;20055;-80
2023/08/25 12:34:30;;;;;;;13.15;9.63;;;22.50;99.90;;;;;;5111420;28;20043;-78
2023/08/25 12:37:16;;;;;;;10.85;8.45;;;22.60;99.90;;;;;;5109971;28;20163;-75
2023/08/25 12:40:05;;;;;;;14.45;7.90;;;23.00;99.90;;;;;;5113227;28;20047;-76
2023/08/25 12:42:55;;;;;;;11.90;7.55;;;23.50;99.90;;;;;;5113170;28;20130;-74
2023/08/25 12:45:41;;;;;;;15.82;7.43;;;23.70;99.90;;;;;;5112694;28;20059;-74
2023/08/25 12:48:27;;;;;;;12.80;7.10;;;23.80;99.90;;;;;;5111695;28;20792;-73
2023/08/25 12:51:15;;;;;;;14.75;7.80;;;23.80;99.90;;;;;;5111511;28;20044;-71
2023/08/25 12:54:13;;;;;;;16.52;7.28;;;24.00;99.90;;;;;;5112063;28;20086;-79
2023/08/25 12:56:59;;;;;;;12.80;8.38;;;24.10;99.90;;;;;;5111285;28;20071;-76
2023/08/25 12:59:46;;;;;;;13.77;6.97;;;24.20;99.90;;;;;;5112118;28;20080;-75
2023/08/25 13:02:32;;;;;;;14.68;7.50;;;24.40;99.90;;;;;;5110097;28;20384;-80
2023/08/25 13:05:19;;;;;;;14.30;6.47;;;24.40;99.90;;;;;;5111588;28;20054;-74
2023/08/25 13:08:06;;;;;;;15.00;6.20;;;24.40;99.90;;;;;;5111895;28;20518;-71
2023/08/25 13:10:52;;;;;;;13.82;6.43;;;24.40;99.90;;;;;;5080753;28;20051;-73
2023/08/25 13:13:38;;;;;;;13.68;6.68;;;24.60;99.90;;;;;;5111602;28;20043;-74
2023/08/25 13:16:25;;;;;;;10.77;5.20;;;25.00;99.90;;;;;;5111499;28;20142;-75
2023/08/25 13:19:13;;;;;;;14.57;6.25;;;25.70;99.90;;;;;;5111910;28;20090;-72
2023/08/25 13:21:59;;;;;;;13.43;5.10;;;26.50;99.90;;;;;;5109177;28;20062;-71
2023/08/25 13:24:46;;;;;;;12.32;5.55;;;26.20;99.90;;;;;;5095505;28;20067;-72
2023/08/25 13:27:32;;;;;;;10.98;5.47;;;25.90;99.90;;;;;;5108591;28;20538;-69
2023/08/25 13:30:18;;;;;;;10.57;5.15;;;25.60;99.90;;;;;;5110597;28;20043;-75
2023/08/25 13:33:05;;;;;;;9.70;4.78;;;25.30;99.90;;;;;;5110288;28;20047;-74
2023/08/25 13:35:54;;;;;;;9.88;5.20;;;24.90;99.90;;;;;;5109893;28;20089;-74
2023/08/25 13:38:40;;;;;;;11.98;5.03;;;24.70;99.90;;;;;;5096749;28;20054;-77
2023/08/25 13:41:26;;;;;;;9.45;4.55;;;24.50;99.90;;;;;;5111299;28;20128;-76
2023/08/25 13:44:13;;;;;;;9.88;4.05;;;24.30;99.90;;;;;;5110611;28;20146;-81
2023/08/25 13:46:59;;;;;;;7.72;3.83;;;24.10;99.90;;;;;;5109545;28;20487;-77
2023/08/25 13:49:45;;;;;;;7.85;4.75;;;24.20;99.90;;;;;;5110447;28;20048;-77
2023/08/25 13:52:31;;;;;;;9.75;3.85;;;24.40;99.90;;;;;;5110076;28;20522;-77
2023/08/25 13:55:17;;;;;;;11.60;3.58;;;24.70;99.90;;;;;;5111030;28;20060;-74
2023/08/25 13:58:04;;;;;;;7.05;3.72;;;25.10;99.90;;;;;;5109502;28;20503;-69
2023/08/25 14:00:50;;;;;;;6.65;3.28;;;25.30;99.90;;;;;;5110269;28;20093;-74
2023/08/25 14:03:36;;;;;;;6.60;3.60;;;25.50;99.90;;;;;;5109720;28;20407;-73
2023/08/25 14:06:22;;;;;;;6.15;3.20;;;26.20;99.90;;;;;;5109641;28;20521;-72
2023/08/25 14:09:08;;;;;;;7.43;3.30;;;27.40;99.90;;;;;;5110967;28;20056;-69